createdAt,value
2018-09-26T00:00:10.406Z,1032.74
2018-09-26T00:01:10.370Z,1032.75
2018-09-26T00:02:10.376Z,1032.71
2018-09-26T00:03:10.381Z,1032.64
2018-09-26T00:04:10.400Z,1032.64
2018-09-26T00:05:10.443Z,1032.68
2018-09-26T00:06:10.412Z,1032.67
2018-09-26T00:07:10.419Z,1032.65
2018-09-26T00:08:10.422Z,1032.65
2018-09-26T00:09:10.430Z,1032.70
2018-09-26T00:10:10.441Z,1032.71
2018-09-26T00:11:10.549Z,1032.68
2018-09-26T00:12:10.449Z,1032.66
2018-09-26T00:13:10.456Z,1032.65
2018-09-26T00:14:10.469Z,1032.62
2018-09-26T00:15:10.497Z,1032.60
2018-09-26T00:16:10.447Z,1032.57
2018-09-26T00:17:10.467Z,1032.54
2018-09-26T00:18:10.580Z,1032.56
2018-09-26T00:19:10.672Z,1032.50
2018-09-26T00:20:11.087Z,1032.51
2018-09-26T00:21:10.484Z,1032.50
2018-09-26T00:22:10.489Z,1032.48
2018-09-26T00:23:10.545Z,1032.52
2018-09-26T00:24:10.509Z,1032.52
2018-09-26T00:25:10.541Z,1032.50
2018-09-26T00:26:11.042Z,1032.54
2018-09-26T00:27:10.628Z,1032.55
2018-09-26T00:28:10.609Z,1032.52
2018-09-26T00:29:10.527Z,1032.51
2018-09-26T00:30:10.540Z,1032.52
2018-09-26T00:31:10.551Z,1032.51
2018-09-26T00:32:10.557Z,1032.56
2018-09-26T00:33:11.154Z,1032.51
2018-09-26T00:34:11.056Z,1032.56
2018-09-26T00:35:10.578Z,1032.57
2018-09-26T00:36:10.704Z,1032.57
2018-09-26T00:37:11.818Z,1032.60
2018-09-26T00:38:11.052Z,1032.58
2018-09-26T00:39:10.631Z,1032.60
2018-09-26T00:40:12.337Z,1032.58
2018-09-26T00:41:10.952Z,1032.56
2018-09-26T00:42:10.933Z,1032.54
2018-09-26T00:43:10.734Z,1032.51
2018-09-26T00:44:10.647Z,1032.51
2018-09-26T00:45:10.620Z,1032.49
2018-09-26T00:46:10.625Z,1032.44
2018-09-26T00:47:10.645Z,1032.47
2018-09-26T00:48:10.626Z,1032.40
2018-09-26T00:49:10.629Z,1032.39
2018-09-26T00:50:10.685Z,1032.38
2018-09-26T00:51:10.645Z,1032.38
2018-09-26T00:52:10.658Z,1032.36
2018-09-26T00:53:10.700Z,1032.30
2018-09-26T00:54:10.663Z,1032.37
2018-09-26T00:55:10.676Z,1032.34
2018-09-26T00:56:10.726Z,1032.31
2018-09-26T00:57:10.738Z,1032.28
2018-09-26T00:58:10.739Z,1032.28
2018-09-26T00:59:10.883Z,1032.23
2018-09-26T01:00:10.703Z,1032.18
2018-09-26T01:01:10.772Z,1032.16
2018-09-26T01:02:10.794Z,1032.17
2018-09-26T01:03:10.747Z,1032.14
2018-09-26T01:04:10.733Z,1032.23
2018-09-26T01:05:10.739Z,1032.25
2018-09-26T01:06:10.783Z,1032.27
2018-09-26T01:07:10.749Z,1032.26
2018-09-26T01:08:10.781Z,1032.17
2018-09-26T01:09:10.766Z,1032.10
2018-09-26T01:10:10.799Z,1032.07
2018-09-26T01:11:10.775Z,1032.04
2018-09-26T01:12:10.788Z,1032.03
2018-09-26T01:13:10.789Z,1031.99
2018-09-26T01:14:10.795Z,1032.03
2018-09-26T01:15:10.815Z,1032.04
2018-09-26T01:16:10.820Z,1032.02
2018-09-26T01:17:10.811Z,1032.03
2018-09-26T01:18:10.853Z,1032.01
2018-09-26T01:19:10.842Z,1031.93
2018-09-26T01:20:10.849Z,1031.91
2018-09-26T01:21:10.823Z,1031.89
2018-09-26T01:22:10.916Z,1031.90
2018-09-26T01:23:10.833Z,1031.86
2018-09-26T01:24:10.867Z,1031.83
2018-09-26T01:25:10.856Z,1031.84
2018-09-26T01:26:10.889Z,1031.79
2018-09-26T01:27:10.880Z,1031.82
2018-09-26T01:28:11.033Z,1031.80
2018-09-26T01:29:10.881Z,1031.79
2018-09-26T01:30:10.904Z,1031.72
2018-09-26T01:31:10.866Z,1031.76
2018-09-26T01:32:10.896Z,1031.74
2018-09-26T01:33:10.882Z,1031.72
2018-09-26T01:34:10.926Z,1031.69
2018-09-26T01:35:10.892Z,1031.63
2018-09-26T01:36:10.910Z,1031.66
2018-09-26T01:37:10.908Z,1031.63
2018-09-26T01:38:10.940Z,1031.61
2018-09-26T01:39:10.970Z,1031.64
2018-09-26T01:40:10.958Z,1031.59
2018-09-26T01:41:10.936Z,1031.62
2018-09-26T01:42:10.945Z,1031.61
2018-09-26T01:43:10.949Z,1031.64
2018-09-26T01:44:10.993Z,1031.66
2018-09-26T01:45:11.033Z,1031.67
2018-09-26T01:46:10.961Z,1031.65
2018-09-26T01:47:11.015Z,1031.63
2018-09-26T01:48:11.003Z,1031.68
2018-09-26T01:49:10.984Z,1031.65
2018-09-26T01:50:10.996Z,1031.72
2018-09-26T01:51:11.026Z,1031.71
2018-09-26T01:52:11.013Z,1031.74
2018-09-26T01:53:11.005Z,1031.76
2018-09-26T01:54:11.027Z,1031.71
2018-09-26T01:55:11.030Z,1031.68
2018-09-26T01:56:11.052Z,1031.70
2018-09-26T01:57:11.032Z,1031.72
2018-09-26T01:58:11.021Z,1031.73
2018-09-26T01:59:11.060Z,1031.75
2018-09-26T02:00:11.052Z,1031.69
2018-09-26T02:01:11.099Z,1031.64
2018-09-26T02:02:11.062Z,1031.63
2018-09-26T02:03:11.086Z,1031.68
2018-09-26T02:04:11.091Z,1031.64
2018-09-26T02:05:11.109Z,1031.64
2018-09-26T02:06:11.098Z,1031.63
2018-09-26T02:07:11.077Z,1031.65
2018-09-26T02:08:11.083Z,1031.64
2018-09-26T02:09:11.120Z,1031.63
2018-09-26T02:10:11.099Z,1031.57
2018-09-26T02:11:11.130Z,1031.61
2018-09-26T02:12:11.164Z,1031.60
2018-09-26T02:13:11.124Z,1031.58
2018-09-26T02:14:11.123Z,1031.54
2018-09-26T02:15:11.186Z,1031.51
2018-09-26T02:16:11.121Z,1031.48
2018-09-26T02:17:11.137Z,1031.48
2018-09-26T02:18:11.134Z,1031.43
2018-09-26T02:19:11.163Z,1031.48
2018-09-26T02:20:11.171Z,1031.50
2018-09-26T02:21:11.202Z,1031.51
2018-09-26T02:22:11.170Z,1031.54
2018-09-26T02:23:11.175Z,1031.52
2018-09-26T02:24:11.176Z,1031.50
2018-09-26T02:25:11.169Z,1031.46
2018-09-26T02:26:11.223Z,1031.49
2018-09-26T02:27:11.215Z,1031.46
2018-09-26T02:28:11.192Z,1031.43
2018-09-26T02:29:11.198Z,1031.42
2018-09-26T02:30:11.196Z,1031.42
2018-09-26T02:31:11.199Z,1031.44
2018-09-26T02:32:11.239Z,1031.41
2018-09-26T02:33:11.320Z,1031.45
2018-09-26T02:34:11.218Z,1031.43
2018-09-26T02:35:11.225Z,1031.54
2018-09-26T02:36:11.250Z,1031.53
2018-09-26T02:37:11.328Z,1031.57
2018-09-26T02:38:11.250Z,1031.59
2018-09-26T02:39:11.251Z,1031.58
2018-09-26T02:40:11.264Z,1031.60
2018-09-26T02:41:11.276Z,1031.64
2018-09-26T02:42:11.513Z,1031.63
2018-09-26T02:43:11.479Z,1031.66
2018-09-26T02:44:11.304Z,1031.69
2018-09-26T02:45:11.303Z,1031.67
2018-09-26T02:46:11.304Z,1031.72
2018-09-26T02:47:11.359Z,1031.77
2018-09-26T02:48:11.368Z,1031.80
2018-09-26T02:49:11.326Z,1031.80
2018-09-26T02:50:11.332Z,1031.78
2018-09-26T02:51:11.345Z,1031.76
2018-09-26T02:52:11.353Z,1031.77
2018-09-26T02:53:11.353Z,1031.75
2018-09-26T02:54:11.407Z,1031.75
2018-09-26T02:55:11.354Z,1031.68
2018-09-26T02:56:11.353Z,1031.60
2018-09-26T02:57:11.380Z,1031.59
2018-09-26T02:58:11.372Z,1031.57
2018-09-26T02:59:11.394Z,1031.57
2018-09-26T03:00:11.358Z,1031.52
2018-09-26T03:01:11.361Z,1031.57
2018-09-26T03:02:11.371Z,1031.56
2018-09-26T03:03:11.422Z,1031.54
2018-09-26T03:04:11.382Z,1031.50
2018-09-26T03:05:11.473Z,1031.47
2018-09-26T03:06:11.401Z,1031.41
2018-09-26T03:07:11.399Z,1031.38
2018-09-26T03:08:11.441Z,1031.41
2018-09-26T03:09:11.412Z,1031.41
2018-09-26T03:10:11.410Z,1031.45
2018-09-26T03:11:11.473Z,1031.46
2018-09-26T03:12:11.438Z,1031.44
2018-09-26T03:13:11.431Z,1031.45
2018-09-26T03:14:11.443Z,1031.41
2018-09-26T03:15:11.449Z,1031.43
2018-09-26T03:16:11.514Z,1031.42
2018-09-26T03:17:11.462Z,1031.40
2018-09-26T03:18:11.509Z,1031.38
2018-09-26T03:19:12.613Z,1031.35
2018-09-26T03:20:11.477Z,1031.36
2018-09-26T03:21:11.486Z,1031.35
2018-09-26T03:22:11.503Z,1031.34
2018-09-26T03:23:11.547Z,1031.33
2018-09-26T03:24:11.505Z,1031.35
2018-09-26T03:25:11.502Z,1031.32
2018-09-26T03:26:11.580Z,1031.37
2018-09-26T03:27:11.531Z,1031.41
2018-09-26T03:28:11.548Z,1031.42
2018-09-26T03:29:11.540Z,1031.44
2018-09-26T03:30:11.547Z,1031.44
2018-09-26T03:31:11.656Z,1031.45
2018-09-26T03:32:11.560Z,1031.44
2018-09-26T03:33:11.550Z,1031.40
2018-09-26T03:34:11.569Z,1031.38
2018-09-26T03:35:11.586Z,1031.41
2018-09-26T03:36:11.579Z,1031.38
2018-09-26T03:37:11.604Z,1031.46
2018-09-26T03:38:11.589Z,1031.44
2018-09-26T03:39:11.590Z,1031.45
2018-09-26T03:40:11.838Z,1031.38
2018-09-26T03:41:11.668Z,1031.39
2018-09-26T03:42:11.591Z,1031.45
2018-09-26T03:43:11.627Z,1031.44
2018-09-26T03:44:11.640Z,1031.43
2018-09-26T03:45:11.629Z,1031.43
2018-09-26T03:46:12.627Z,1031.47
2018-09-26T03:47:11.619Z,1031.40
2018-09-26T03:48:11.641Z,1031.38
2018-09-26T03:49:11.691Z,1031.33
2018-09-26T03:50:11.684Z,1031.32
2018-09-26T03:51:11.643Z,1031.32
2018-09-26T03:52:11.652Z,1031.27
2018-09-26T03:53:11.684Z,1031.24
2018-09-26T03:54:11.681Z,1031.25
2018-09-26T03:55:11.743Z,1031.20
2018-09-26T03:56:11.675Z,1031.15
2018-09-26T03:57:11.705Z,1031.13
2018-09-26T03:58:11.705Z,1031.17
2018-09-26T03:59:11.692Z,1031.14
2018-09-26T04:00:11.699Z,1031.10
2018-09-26T04:01:11.776Z,1031.07
2018-09-26T04:02:11.721Z,1031.10
2018-09-26T04:03:11.723Z,1031.07
2018-09-26T04:04:11.738Z,1031.08
2018-09-26T04:05:11.766Z,1031.12
2018-09-26T04:06:11.739Z,1031.10
2018-09-26T04:07:11.750Z,1031.10
2018-09-26T04:08:11.831Z,1031.06
2018-09-26T04:09:11.741Z,1031.09
2018-09-26T04:10:11.749Z,1031.06
2018-09-26T04:11:11.880Z,1031.07
2018-09-26T04:12:11.797Z,1031.03
2018-09-26T04:13:11.906Z,1031.04
2018-09-26T04:14:11.761Z,1030.97
2018-09-26T04:15:11.785Z,1030.99
2018-09-26T04:16:11.809Z,1030.96
2018-09-26T04:17:11.797Z,1030.95
2018-09-26T04:18:11.850Z,1030.92
2018-09-26T04:19:11.813Z,1030.92
2018-09-26T04:20:11.822Z,1030.95
2018-09-26T04:21:11.827Z,1030.90
2018-09-26T04:22:11.871Z,1030.87
2018-09-26T04:23:11.839Z,1030.87
2018-09-26T04:24:11.829Z,1030.84
2018-09-26T04:25:11.937Z,1030.87
2018-09-26T04:26:11.920Z,1030.87
2018-09-26T04:27:11.915Z,1030.82
2018-09-26T04:28:11.878Z,1030.84
2018-09-26T04:29:11.899Z,1030.82
2018-09-26T04:30:11.885Z,1030.78
2018-09-26T04:31:11.868Z,1030.77
2018-09-26T04:32:11.882Z,1030.78
2018-09-26T04:33:12.544Z,1030.77
2018-09-26T04:34:11.955Z,1030.75
2018-09-26T04:35:11.881Z,1030.74
2018-09-26T04:36:11.904Z,1030.78
2018-09-26T04:37:13.004Z,1030.76
2018-09-26T04:38:11.893Z,1030.82
2018-09-26T04:39:11.904Z,1030.78
2018-09-26T04:40:11.913Z,1030.73
2018-09-26T04:41:11.919Z,1030.73
2018-09-26T04:42:11.969Z,1030.72
2018-09-26T04:43:11.946Z,1030.66
2018-09-26T04:44:11.930Z,1030.67
2018-09-26T04:45:11.940Z,1030.65
2018-09-26T04:46:11.994Z,1030.65
2018-09-26T04:47:11.951Z,1030.63
2018-09-26T04:48:12.305Z,1030.64
2018-09-26T04:49:12.009Z,1030.63
2018-09-26T04:50:11.974Z,1030.62
2018-09-26T04:51:11.980Z,1030.58
2018-09-26T04:52:11.987Z,1030.54
2018-09-26T04:53:11.993Z,1030.53
2018-09-26T04:54:12.044Z,1030.49
2018-09-26T04:55:12.010Z,1030.51
2018-09-26T04:56:12.011Z,1030.51
2018-09-26T04:57:12.024Z,1030.49
2018-09-26T04:58:12.033Z,1030.53
2018-09-26T04:59:12.059Z,1030.55
2018-09-26T05:00:12.042Z,1030.54
2018-09-26T05:01:12.050Z,1030.54
2018-09-26T05:02:12.063Z,1030.51
2018-09-26T05:03:12.064Z,1030.46
2018-09-26T05:04:12.067Z,1030.45
2018-09-26T05:05:12.067Z,1030.45
2018-09-26T05:06:12.087Z,1030.43
2018-09-26T05:07:12.089Z,1030.39
2018-09-26T05:08:12.123Z,1030.39
2018-09-26T05:09:12.087Z,1030.38
2018-09-26T05:10:12.091Z,1030.34
2018-09-26T05:11:12.108Z,1030.33
2018-09-26T05:12:12.091Z,1030.31
2018-09-26T05:13:12.120Z,1030.28
2018-09-26T05:14:12.125Z,1030.22
2018-09-26T05:15:12.128Z,1030.25
2018-09-26T05:16:20.994Z,1030.24
2018-09-26T05:23:55.657Z,1030.10
2018-09-26T05:24:55.659Z,1030.09
2018-09-26T05:25:55.652Z,1030.09
2018-09-26T05:26:55.661Z,1030.05
2018-09-26T05:27:55.643Z,1030.08
2018-09-26T05:28:55.656Z,1030.08
2018-09-26T05:29:55.673Z,1030.04
2018-09-26T05:30:55.664Z,1030.04
2018-09-26T05:31:55.717Z,1030.01
2018-09-26T05:32:55.773Z,1029.98
2018-09-26T05:33:55.791Z,1029.96
2018-09-26T05:34:55.718Z,1029.95
2018-09-26T05:35:55.753Z,1029.95
2018-09-26T05:36:55.700Z,1030.02
2018-09-26T05:37:55.691Z,1030.02
2018-09-26T05:38:55.735Z,1030.01
2018-09-26T05:39:55.720Z,1029.99
2018-09-26T05:40:55.762Z,1030.00
2018-09-26T05:41:55.718Z,1030.03
2018-09-26T05:42:55.774Z,1030.03
2018-09-26T05:43:55.743Z,1030.04
2018-09-26T05:44:55.737Z,1030.01
2018-09-26T05:45:55.744Z,1030.03
2018-09-26T05:46:55.785Z,1030.07
2018-09-26T05:47:55.773Z,1030.04
2018-09-26T05:48:55.812Z,1030.11
2018-09-26T05:49:55.788Z,1030.05
2018-09-26T05:50:55.799Z,1030.07
2018-09-26T05:51:55.778Z,1030.08
2018-09-26T05:52:55.789Z,1030.13
2018-09-26T05:53:55.793Z,1030.07
2018-09-26T05:54:55.807Z,1030.08
2018-09-26T05:55:55.805Z,1030.05
2018-09-26T05:56:55.852Z,1030.08
2018-09-26T05:57:55.822Z,1030.07
2018-09-26T05:58:55.824Z,1030.02
2018-09-26T05:59:55.845Z,1029.96
2018-09-26T06:00:55.913Z,1030.02
2018-09-26T06:01:55.851Z,1029.96
2018-09-26T06:02:55.852Z,1030.00
2018-09-26T06:03:56.534Z,1029.96
2018-09-26T06:04:55.893Z,1030.00
2018-09-26T06:05:55.877Z,1030.00
2018-09-26T06:06:55.879Z,1030.01
2018-09-26T06:07:55.886Z,1030.02
2018-09-26T06:08:55.958Z,1030.02
2018-09-26T06:09:55.949Z,1030.12
2018-09-26T06:10:55.910Z,1030.08
2018-09-26T06:11:55.916Z,1030.13
2018-09-26T06:12:55.956Z,1030.14
2018-09-26T06:13:55.989Z,1030.14
2018-09-26T06:14:55.944Z,1030.14
2018-09-26T06:15:55.938Z,1030.13
2018-09-26T06:16:55.940Z,1030.14
2018-09-26T06:17:55.964Z,1030.11
2018-09-26T06:18:55.973Z,1030.16
2018-09-26T06:19:55.973Z,1030.11
2018-09-26T06:20:55.977Z,1030.14
2018-09-26T06:21:55.989Z,1030.13
2018-09-26T06:22:55.969Z,1030.10
2018-09-26T06:23:55.978Z,1030.18
2018-09-26T06:24:56.009Z,1030.15
2018-09-26T06:25:56.023Z,1030.19
2018-09-26T06:26:55.979Z,1030.20
2018-09-26T06:27:55.989Z,1030.18
2018-09-26T06:28:56.026Z,1030.18
2018-09-26T06:29:56.005Z,1030.19
2018-09-26T06:30:56.066Z,1030.16
2018-09-26T06:31:56.046Z,1030.18
2018-09-26T06:32:56.113Z,1030.19
2018-09-26T06:33:56.024Z,1030.18
2018-09-26T06:34:56.094Z,1030.17
2018-09-26T06:35:56.085Z,1030.20
2018-09-26T06:36:56.093Z,1030.17
2018-09-26T06:37:56.052Z,1030.22
2018-09-26T06:38:56.058Z,1030.25
2018-09-26T06:39:56.072Z,1030.16
2018-09-26T06:40:56.114Z,1030.15
2018-09-26T06:41:56.119Z,1030.05
2018-09-26T06:42:56.125Z,1030.07
2018-09-26T06:43:56.764Z,1030.05
2018-09-26T06:44:56.118Z,1030.07
2018-09-26T06:45:56.103Z,1030.04
2018-09-26T06:46:56.178Z,1030.04
2018-09-26T06:47:56.165Z,1030.03
2018-09-26T06:48:56.131Z,1030.05
2018-09-26T06:49:56.152Z,1030.03
2018-09-26T06:50:56.194Z,1030.05
2018-09-26T06:51:56.153Z,1030.09
2018-09-26T06:52:56.201Z,1030.11
2018-09-26T06:53:56.190Z,1030.08
2018-09-26T06:54:56.172Z,1030.11
2018-09-26T06:55:56.176Z,1030.12
2018-09-26T06:56:56.232Z,1030.14
2018-09-26T06:57:56.187Z,1030.15
2018-09-26T06:58:56.197Z,1030.14
2018-09-26T06:59:56.205Z,1030.21
2018-09-26T07:00:56.254Z,1030.18
2018-09-26T07:01:56.287Z,1030.19
2018-09-26T07:02:56.227Z,1030.16
2018-09-26T07:03:56.230Z,1030.16
2018-09-26T07:04:56.240Z,1030.12
2018-09-26T07:05:56.246Z,1030.15
2018-09-26T07:06:56.256Z,1030.12
2018-09-26T07:07:56.357Z,1030.15
2018-09-26T07:08:56.270Z,1030.10
2018-09-26T07:09:56.271Z,1030.01
2018-09-26T07:10:56.441Z,1030.05
2018-09-26T07:11:56.311Z,1030.02
2018-09-26T07:12:56.354Z,1030.04
2018-09-26T07:13:56.325Z,1030.02
2018-09-26T07:14:56.313Z,1030.04
2018-09-26T07:15:56.314Z,1030.00
2018-09-26T07:16:56.320Z,1029.99
2018-09-26T07:17:56.390Z,1029.99
2018-09-26T07:18:56.357Z,1029.96
2018-09-26T07:19:56.343Z,1029.90
2018-09-26T07:20:56.348Z,1029.93
2018-09-26T07:21:56.350Z,1029.95
2018-09-26T07:22:56.360Z,1029.97
2018-09-26T07:23:56.492Z,1029.99
2018-09-26T07:24:56.375Z,1030.00
2018-09-26T07:25:56.398Z,1029.99
2018-09-26T07:26:56.409Z,1029.98
2018-09-26T07:27:56.390Z,1029.94
2018-09-26T07:28:56.422Z,1029.95
2018-09-26T07:29:56.451Z,1029.92
2018-09-26T07:30:56.432Z,1029.96
2018-09-26T07:31:56.448Z,1029.95
2018-09-26T07:32:56.446Z,1030.04
2018-09-26T07:33:56.437Z,1030.02
2018-09-26T07:34:56.456Z,1029.97
2018-09-26T07:35:56.520Z,1029.92
2018-09-26T07:36:56.456Z,1029.89
2018-09-26T07:37:56.457Z,1029.87
2018-09-26T07:38:56.466Z,1029.90
2018-09-26T07:39:56.515Z,1029.88
2018-09-26T07:40:56.484Z,1029.89
2018-09-26T07:41:56.511Z,1029.88
2018-09-26T07:42:56.503Z,1029.88
2018-09-26T07:43:56.519Z,1029.85
2018-09-26T07:44:56.514Z,1029.84
2018-09-26T07:45:56.572Z,1029.83
2018-09-26T07:46:56.554Z,1029.82
2018-09-26T07:47:56.543Z,1029.79
2018-09-26T07:48:56.579Z,1029.84
2018-09-26T07:49:56.556Z,1029.89
2018-09-26T07:50:56.567Z,1029.94
2018-09-26T07:51:56.616Z,1029.95
2018-09-26T07:52:56.633Z,1029.99
2018-09-26T07:53:56.688Z,1029.97
2018-09-26T07:54:56.595Z,1030.00
2018-09-26T07:55:56.609Z,1030.01
2018-09-26T07:56:56.605Z,1030.00
2018-09-26T07:57:56.618Z,1029.97
2018-09-26T07:58:56.656Z,1029.98
2018-09-26T07:59:56.643Z,1029.98
2018-09-26T08:00:56.645Z,1029.93
2018-09-26T08:01:56.646Z,1029.92
2018-09-26T08:02:56.717Z,1029.89
2018-09-26T08:03:56.741Z,1029.93
2018-09-26T08:04:56.666Z,1029.93
2018-09-26T08:05:56.747Z,1029.92
2018-09-26T08:06:56.681Z,1029.90
2018-09-26T08:07:56.688Z,1029.91
2018-09-26T08:08:56.700Z,1029.85
2018-09-26T08:09:56.708Z,1029.81
2018-09-26T08:10:56.740Z,1029.86
2018-09-26T08:11:56.722Z,1029.82
2018-09-26T08:12:56.722Z,1029.84
2018-09-26T08:13:56.769Z,1029.77
2018-09-26T08:14:56.748Z,1029.77
2018-09-26T08:15:56.743Z,1029.78
2018-09-26T08:16:56.751Z,1029.72
2018-09-26T08:17:56.762Z,1029.73
2018-09-26T08:18:56.803Z,1029.71
2018-09-26T08:19:56.835Z,1029.73
2018-09-26T08:20:56.785Z,1029.70
2018-09-26T08:21:56.797Z,1029.63
2018-09-26T08:22:56.847Z,1029.56
2018-09-26T08:23:56.860Z,1029.53
2018-09-26T08:24:56.828Z,1029.57
2018-09-26T08:25:56.813Z,1029.56
2018-09-26T08:26:56.908Z,1029.54
2018-09-26T08:27:56.827Z,1029.54
2018-09-26T08:28:56.869Z,1029.55
2018-09-26T08:29:56.946Z,1029.59
2018-09-26T08:30:56.847Z,1029.55
2018-09-26T08:31:56.854Z,1029.54
2018-09-26T08:32:56.854Z,1029.54
2018-09-26T08:33:56.895Z,1029.51
2018-09-26T08:34:56.879Z,1029.49
2018-09-26T08:35:56.940Z,1029.48
2018-09-26T08:36:56.888Z,1029.46
2018-09-26T08:37:56.891Z,1029.46
2018-09-26T08:38:56.921Z,1029.47
2018-09-26T08:39:56.910Z,1029.40
2018-09-26T08:40:57.324Z,1029.37
2018-09-26T08:41:56.916Z,1029.37
2018-09-26T08:42:56.985Z,1029.32
2018-09-26T08:43:56.966Z,1029.36
2018-09-26T08:44:56.945Z,1029.30
2018-09-26T08:45:57.038Z,1029.34
2018-09-26T08:46:56.975Z,1029.29
2018-09-26T08:47:56.985Z,1029.32
2018-09-26T08:48:56.985Z,1029.32
2018-09-26T08:49:56.993Z,1029.31
2018-09-26T08:50:57.036Z,1029.33
2018-09-26T08:51:57.009Z,1029.25
2018-09-26T08:52:57.011Z,1029.21
2018-09-26T08:53:57.058Z,1029.19
2018-09-26T08:54:57.027Z,1029.18
2018-09-26T08:55:57.031Z,1029.15
2018-09-26T08:56:57.087Z,1029.15
2018-09-26T08:57:57.068Z,1029.08
2018-09-26T08:58:57.056Z,1029.08
2018-09-26T08:59:57.068Z,1029.01
2018-09-26T09:00:57.100Z,1028.97
2018-09-26T09:01:57.095Z,1028.97
2018-09-26T09:02:57.116Z,1028.97
2018-09-26T09:03:57.094Z,1028.98
2018-09-26T09:04:57.114Z,1028.97
2018-09-26T09:05:57.117Z,1028.94
2018-09-26T09:06:57.121Z,1028.97
2018-09-26T09:07:57.176Z,1028.96
2018-09-26T09:08:57.173Z,1029.00
2018-09-26T09:09:57.177Z,1029.02
2018-09-26T09:10:57.167Z,1029.01
2018-09-26T09:11:57.185Z,1029.01
2018-09-26T09:12:57.179Z,1029.03
2018-09-26T09:13:57.205Z,1029.02
2018-09-26T09:14:57.230Z,1029.02
2018-09-26T09:15:57.211Z,1029.04
2018-09-26T09:16:57.218Z,1029.02
2018-09-26T09:17:57.320Z,1029.08
2018-09-26T09:18:57.296Z,1029.08
2018-09-26T09:19:57.233Z,1029.09
2018-09-26T09:20:57.245Z,1029.12
2018-09-26T09:21:57.272Z,1029.08
2018-09-26T09:22:57.281Z,1029.11
2018-09-26T09:23:57.395Z,1029.12
2018-09-26T09:24:57.294Z,1029.06
2018-09-26T09:25:57.296Z,1029.10
2018-09-26T09:26:57.304Z,1029.07
2018-09-26T09:27:57.311Z,1028.99
2018-09-26T09:28:57.340Z,1028.91
2018-09-26T09:29:58.294Z,1028.93
2018-09-26T09:30:57.329Z,1028.89
2018-09-26T09:31:57.848Z,1028.90
2018-09-26T09:32:57.388Z,1028.86
2018-09-26T09:33:57.352Z,1028.88
2018-09-26T09:34:57.372Z,1028.90
2018-09-26T09:35:57.371Z,1028.92
2018-09-26T09:36:57.407Z,1028.94
2018-09-26T09:37:57.434Z,1028.91
2018-09-26T09:38:57.401Z,1028.90
2018-09-26T09:39:57.401Z,1028.88
2018-09-26T09:40:57.455Z,1028.89
2018-09-26T09:41:57.445Z,1028.85
2018-09-26T09:42:57.470Z,1028.82
2018-09-26T09:43:57.546Z,1028.78
2018-09-26T09:44:57.467Z,1028.80
2018-09-26T09:45:57.491Z,1028.81
2018-09-26T09:46:57.480Z,1028.83
2018-09-26T09:47:57.545Z,1028.85
2018-09-26T09:48:57.510Z,1028.86
2018-09-26T09:49:57.524Z,1028.85
2018-09-26T09:50:57.532Z,1028.87
2018-09-26T09:51:57.517Z,1028.83
2018-09-26T09:52:57.544Z,1028.90
2018-09-26T09:53:57.553Z,1028.88
2018-09-26T09:54:57.864Z,1028.86
2018-09-26T09:55:57.566Z,1028.83
2018-09-26T09:56:57.569Z,1028.83
2018-09-26T09:57:57.613Z,1028.78
2018-09-26T09:58:57.632Z,1028.83
2018-09-26T09:59:57.590Z,1028.76
2018-09-26T10:00:57.632Z,1028.77
2018-09-26T10:01:57.806Z,1028.74
2018-09-26T10:02:57.783Z,1028.69
2018-09-26T10:03:57.615Z,1028.74
2018-09-26T10:04:57.627Z,1028.72
2018-09-26T10:05:57.629Z,1028.76
2018-09-26T10:06:57.638Z,1028.65
2018-09-26T10:07:57.690Z,1028.64
2018-09-26T10:08:57.690Z,1028.58
2018-09-26T10:09:57.659Z,1028.59
2018-09-26T10:10:57.689Z,1028.52
2018-09-26T10:11:58.284Z,1028.58
2018-09-26T10:12:57.735Z,1028.62
2018-09-26T10:13:57.770Z,1028.62
2018-09-26T10:14:57.734Z,1028.54
2018-09-26T10:15:57.717Z,1028.59
2018-09-26T10:16:57.819Z,1028.61
2018-09-26T10:17:57.811Z,1028.56
2018-09-26T10:18:57.775Z,1028.55
2018-09-26T10:19:57.774Z,1028.51
2018-09-26T10:20:57.783Z,1028.48
2018-09-26T10:21:57.780Z,1028.49
2018-09-26T10:22:57.831Z,1028.50
2018-09-26T10:23:57.820Z,1028.47
2018-09-26T10:24:57.862Z,1028.45
2018-09-26T10:25:57.808Z,1028.39
2018-09-26T10:26:57.821Z,1028.37
2018-09-26T10:27:58.013Z,1028.34
2018-09-26T10:28:57.832Z,1028.33
2018-09-26T10:29:57.893Z,1028.30
2018-09-26T10:30:57.855Z,1028.34
2018-09-26T10:31:57.861Z,1028.35
2018-09-26T10:32:57.912Z,1028.33
2018-09-26T10:33:57.925Z,1028.31
2018-09-26T10:34:57.974Z,1028.29
2018-09-26T10:35:57.903Z,1028.24
2018-09-26T10:36:57.929Z,1028.18
2018-09-26T10:37:57.914Z,1028.11
2018-09-26T10:38:58.047Z,1028.12
2018-09-26T10:39:57.977Z,1028.19
2018-09-26T10:40:57.986Z,1028.11
2018-09-26T10:41:57.969Z,1028.22
2018-09-26T10:42:58.361Z,1028.24
2018-09-26T10:43:57.978Z,1028.24
2018-09-26T10:44:57.987Z,1028.13
2018-09-26T10:45:58.217Z,1028.13
2018-09-26T10:46:57.997Z,1028.13
2018-09-26T10:47:58.009Z,1028.12
2018-09-26T10:53:51.202Z,1027.99
2018-09-26T10:54:51.183Z,1027.95
2018-09-26T10:55:51.157Z,1027.90
2018-09-26T10:56:51.167Z,1027.85
2018-09-26T10:57:51.150Z,1027.85
2018-09-26T10:58:51.141Z,1027.82
2018-09-26T10:59:51.171Z,1027.73
2018-09-26T11:00:51.159Z,1027.70
2018-09-26T11:01:51.244Z,1027.74
2018-09-26T11:02:51.204Z,1027.79
2018-09-26T11:03:51.189Z,1027.75
2018-09-26T11:04:51.270Z,1027.71
2018-09-26T11:05:51.215Z,1027.68
2018-09-26T11:06:51.285Z,1027.73
2018-09-26T11:07:51.216Z,1027.72
2018-09-26T11:08:51.231Z,1027.74
2018-09-26T11:09:51.271Z,1027.64
2018-09-26T11:10:51.247Z,1027.64
2018-09-26T11:11:51.321Z,1027.62
2018-09-26T11:12:51.289Z,1027.54
2018-09-26T11:13:51.303Z,1027.50
2018-09-26T11:14:51.297Z,1027.50
2018-09-26T11:15:51.289Z,1027.47
2018-09-26T11:16:51.298Z,1027.48
2018-09-26T11:17:51.355Z,1027.49
2018-09-26T11:18:51.358Z,1027.37
2018-09-26T11:19:51.653Z,1027.40
2018-09-26T11:20:51.357Z,1027.29
2018-09-26T11:21:51.364Z,1027.26
2018-09-26T11:22:51.424Z,1027.30
2018-09-26T11:23:51.378Z,1027.30
2018-09-26T11:24:51.377Z,1027.25
2018-09-26T11:25:51.429Z,1027.31
2018-09-26T11:26:51.389Z,1027.25
2018-09-26T11:27:51.431Z,1027.15
2018-09-26T11:28:51.408Z,1027.15
2018-09-26T11:29:51.419Z,1027.15
2018-09-26T11:30:51.457Z,1027.14
2018-09-26T11:31:51.431Z,1027.10
2018-09-26T11:32:51.483Z,1027.08
2018-09-26T11:33:51.564Z,1027.02
2018-09-26T11:34:51.460Z,1027.02
2018-09-26T11:35:51.545Z,1026.96
2018-09-26T11:36:51.497Z,1026.95
2018-09-26T11:37:51.507Z,1026.92
2018-09-26T11:38:51.536Z,1026.91
2018-09-26T11:39:51.539Z,1026.93
2018-09-26T11:40:51.502Z,1026.97
2018-09-26T11:41:51.565Z,1027.02
2018-09-26T11:42:51.545Z,1027.03
2018-09-26T11:43:51.556Z,1026.99
2018-09-26T11:44:51.651Z,1026.97
2018-09-26T11:45:51.556Z,1026.94
2018-09-26T11:46:51.648Z,1026.88
2018-09-26T11:47:51.606Z,1026.84
2018-09-26T11:48:51.639Z,1026.86
2018-09-26T11:49:51.604Z,1026.78
2018-09-26T11:50:51.977Z,1026.83
2018-09-26T11:51:51.631Z,1026.83
2018-09-26T11:52:51.661Z,1026.82
2018-09-26T11:53:51.949Z,1026.80
2018-09-26T11:54:51.703Z,1026.81
2018-09-26T11:55:51.702Z,1026.77
2018-09-26T11:56:51.649Z,1026.78
2018-09-26T11:57:51.693Z,1026.84
2018-09-26T11:58:51.708Z,1026.80
2018-09-26T11:59:51.679Z,1026.78
2018-09-26T12:00:51.706Z,1026.77
2018-09-26T12:01:51.723Z,1026.79
2018-09-26T12:02:53.119Z,1026.74
2018-09-26T12:03:51.759Z,1026.69
2018-09-26T12:04:51.733Z,1026.68
2018-09-26T12:05:51.739Z,1026.60
2018-09-26T12:06:51.760Z,1026.58
2018-09-26T12:07:51.780Z,1026.52
2018-09-26T12:08:51.811Z,1026.54
2018-09-26T12:09:51.781Z,1026.51
2018-09-26T12:10:51.786Z,1026.46
2018-09-26T12:11:51.794Z,1026.48
2018-09-26T12:12:51.907Z,1026.43
2018-09-26T12:13:51.849Z,1026.42
2018-09-26T12:14:51.874Z,1026.43
2018-09-26T12:15:51.832Z,1026.41
2018-09-26T12:16:51.852Z,1026.40